sensor_id;sensor_type;location;lat;lon;timestamp;temperature;humidity
33099;DHT22;19465;49.016;11.414;2024-02-23T00:00:49;8.00;99.90
33099;DHT22;19465;49.016;11.414;2024-02-23T00:03:14;8.10;99.90
33099;DHT22;19465;49.016;11.414;2024-02-23T00:05:40;8.10;99.90
33099;DHT22;19465;49.016;11.414;2024-02-23T00:08:07;8.10;99.90
33099;DHT22;19465;49.016;11.414;2024-02-23T00:10:34;8.10;99.90
33099;DHT22;19465;49.016;11.414;2024-02-23T00:12:59;8.10;99.90
33099;DHT22;19465;49.016;11.414;2024-02-23T00:15:26;8.10;99.90
33099;DHT22;19465;49.016;11.414;2024-02-23T00:17:51;8.10;99.90
33099;DHT22;19465;49.016;11.414;2024-02-23T00:20:17;8.10;99.90
33099;DHT22;19465;49.016;11.414;2024-02-23T00:22:42;8.00;99.90
33099;DHT22;19465;49.016;11.414;2024-02-23T00:25:08;8.00;99.90
33099;DHT22;19465;49.016;11.414;2024-02-23T00:27:34;8.10;99.90
33099;DHT22;19465;49.016;11.414;2024-02-23T00:29:59;8.00;99.90
33099;DHT22;19465;49.016;11.414;2024-02-23T00:32:25;8.00;99.90
33099;DHT22;19465;49.016;11.414;2024-02-23T00:34:51;8.00;99.90
33099;DHT22;19465;49.016;11.414;2024-02-23T00:37:16;8.00;99.90
33099;DHT22;19465;49.016;11.414;2024-02-23T00:39:42;7.90;99.90
33099;DHT22;19465;49.016;11.414;2024-02-23T00:42:07;7.90;99.90
33099;DHT22;19465;49.016;11.414;2024-02-23T00:44:33;7.90;99.90
33099;DHT22;19465;49.016;11.414;2024-02-23T00:46:58;7.90;99.90
33099;DHT22;19465;49.016;11.414;2024-02-23T00:49:29;7.90;99.90
33099;DHT22;19465;49.016;11.414;2024-02-23T00:51:55;7.50;99.90
33099;DHT22;19465;49.016;11.414;2024-02-23T00:54:21;7.20;99.90
33099;DHT22;19465;49.016;11.414;2024-02-23T00:56:46;7.00;99.90
33099;DHT22;19465;49.016;11.414;2024-02-23T00:59:12;6.80;99.90
33099;DHT22;19465;49.016;11.414;2024-02-23T01:01:38;6.70;99.90
33099;DHT22;19465;49.016;11.414;2024-02-23T01:04:04;6.60;99.90
33099;DHT22;19465;49.016;11.414;2024-02-23T01:06:29;6.50;99.90
33099;DHT22;19465;49.016;11.414;2024-02-23T01:08:55;6.50;99.90
33099;DHT22;19465;49.016;11.414;2024-02-23T01:11:20;6.40;99.90
33099;DHT22;19465;49.016;11.414;2024-02-23T01:13:46;6.40;99.90
33099;DHT22;19465;49.016;11.414;2024-02-23T01:16:11;6.40;99.90
33099;DHT22;19465;49.016;11.414;2024-02-23T01:18:37;6.40;99.90
33099;DHT22;19465;49.016;11.414;2024-02-23T01:21:03;6.40;99.90
33099;DHT22;19465;49.016;11.414;2024-02-23T01:23:28;6.30;99.90
33099;DHT22;19465;49.016;11.414;2024-02-23T01:25:54;6.20;99.90
33099;DHT22;19465;49.016;11.414;2024-02-23T01:28:19;6.20;99.90
33099;DHT22;19465;49.016;11.414;2024-02-23T01:30:45;6.20;99.90
33099;DHT22;19465;49.016;11.414;2024-02-23T01:33:10;6.20;99.90
33099;DHT22;19465;49.016;11.414;2024-02-23T01:35:36;6.10;99.90
33099;DHT22;19465;49.016;11.414;2024-02-23T01:38:02;6.00;99.90
33099;DHT22;19465;49.016;11.414;2024-02-23T01:40:28;6.00;99.90
33099;DHT22;19465;49.016;11.414;2024-02-23T01:43:04;6.00;99.90
33099;DHT22;19465;49.016;11.414;2024-02-23T01:45:30;5.90;99.90
33099;DHT22;19465;49.016;11.414;2024-02-23T01:47:57;5.90;99.90
33099;DHT22;19465;49.016;11.414;2024-02-23T01:50:22;5.90;99.90
33099;DHT22;19465;49.016;11.414;2024-02-23T01:52:49;5.90;99.90
33099;DHT22;19465;49.016;11.414;2024-02-23T01:55:16;5.90;99.90
33099;DHT22;19465;49.016;11.414;2024-02-23T01:57:42;5.80;99.90
33099;DHT22;19465;49.016;11.414;2024-02-23T02:00:08;5.80;99.90
33099;DHT22;19465;49.016;11.414;2024-02-23T02:02:35;5.80;99.90
33099;DHT22;19465;49.016;11.414;2024-02-23T02:05:01;5.80;99.90
33099;DHT22;19465;49.016;11.414;2024-02-23T02:07:26;5.90;99.90
33099;DHT22;19465;49.016;11.414;2024-02-23T02:09:52;5.90;99.90
33099;DHT22;19465;49.016;11.414;2024-02-23T02:12:29;5.90;99.90
33099;DHT22;19465;49.016;11.414;2024-02-23T02:14:55;5.80;99.90
33099;DHT22;19465;49.016;11.414;2024-02-23T02:17:21;5.80;99.90
33099;DHT22;19465;49.016;11.414;2024-02-23T02:19:48;5.80;99.90
33099;DHT22;19465;49.016;11.414;2024-02-23T02:22:13;5.70;99.90
33099;DHT22;19465;49.016;11.414;2024-02-23T02:24:39;5.70;99.90
33099;DHT22;19465;49.016;11.414;2024-02-23T02:27:07;5.70;99.90
33099;DHT22;19465;49.016;11.414;2024-02-23T02:29:35;5.70;99.90
33099;DHT22;19465;49.016;11.414;2024-02-23T02:32:01;5.70;99.90
33099;DHT22;19465;49.016;11.414;2024-02-23T02:34:27;5.80;99.90
33099;DHT22;19465;49.016;11.414;2024-02-23T02:36:54;5.80;99.90
33099;DHT22;19465;49.016;11.414;2024-02-23T02:39:19;5.70;99.90
33099;DHT22;19465;49.016;11.414;2024-02-23T02:41:45;5.70;99.90
33099;DHT22;19465;49.016;11.414;2024-02-23T02:44:11;5.60;99.90
33099;DHT22;19465;49.016;11.414;2024-02-23T02:46:38;5.70;99.90
33099;DHT22;19465;49.016;11.414;2024-02-23T02:49:04;5.70;99.90
33099;DHT22;19465;49.016;11.414;2024-02-23T02:51:29;5.70;99.90
33099;DHT22;19465;49.016;11.414;2024-02-23T02:53:55;5.70;99.90
33099;DHT22;19465;49.016;11.414;2024-02-23T02:56:20;5.70;99.90
33099;DHT22;19465;49.016;11.414;2024-02-23T02:58:46;5.70;99.90
33099;DHT22;19465;49.016;11.414;2024-02-23T03:01:11;5.70;99.90
33099;DHT22;19465;49.016;11.414;2024-02-23T03:03:37;5.70;99.90
33099;DHT22;19465;49.016;11.414;2024-02-23T03:06:03;5.70;99.90
33099;DHT22;19465;49.016;11.414;2024-02-23T03:08:28;5.60;99.90
33099;DHT22;19465;49.016;11.414;2024-02-23T03:10:54;5.60;99.90
33099;DHT22;19465;49.016;11.414;2024-02-23T03:13:19;5.60;99.90
33099;DHT22;19465;49.016;11.414;2024-02-23T03:15:45;5.60;99.90
33099;DHT22;19465;49.016;11.414;2024-02-23T03:18:10;5.60;99.90
33099;DHT22;19465;49.016;11.414;2024-02-23T03:20:36;5.60;99.90
33099;DHT22;19465;49.016;11.414;2024-02-23T03:23:01;5.60;99.90
33099;DHT22;19465;49.016;11.414;2024-02-23T03:25:29;5.60;99.90
33099;DHT22;19465;49.016;11.414;2024-02-23T03:27:54;5.60;99.90
33099;DHT22;19465;49.016;11.414;2024-02-23T03:30:20;5.60;99.90
33099;DHT22;19465;49.016;11.414;2024-02-23T03:32:45;5.60;99.90
33099;DHT22;19465;49.016;11.414;2024-02-23T03:35:12;5.60;99.90
33099;DHT22;19465;49.016;11.414;2024-02-23T03:37:38;5.60;99.90
33099;DHT22;19465;49.016;11.414;2024-02-23T03:40:05;5.60;99.90
33099;DHT22;19465;49.016;11.414;2024-02-23T03:42:31;5.60;99.90
33099;DHT22;19465;49.016;11.414;2024-02-23T03:44:57;5.60;99.90
33099;DHT22;19465;49.016;11.414;2024-02-23T03:47:22;5.60;99.90
33099;DHT22;19465;49.016;11.414;2024-02-23T03:49:48;5.60;99.90
33099;DHT22;19465;49.016;11.414;2024-02-23T03:52:13;5.60;99.90
33099;DHT22;19465;49.016;11.414;2024-02-23T03:54:39;5.70;99.90
33099;DHT22;19465;49.016;11.414;2024-02-23T03:57:04;5.60;99.90
33099;DHT22;19465;49.016;11.414;2024-02-23T03:59:30;5.60;99.90
33099;DHT22;19465;49.016;11.414;2024-02-23T04:01:56;5.50;99.90
33099;DHT22;19465;49.016;11.414;2024-02-23T04:04:21;5.50;99.90
33099;DHT22;19465;49.016;11.414;2024-02-23T04:06:47;5.50;99.90
33099;DHT22;19465;49.016;11.414;2024-02-23T04:09:12;5.50;99.90
33099;DHT22;19465;49.016;11.414;2024-02-23T04:11:38;5.50;99.90
33099;DHT22;19465;49.016;11.414;2024-02-23T04:14:04;5.60;99.90
33099;DHT22;19465;49.016;11.414;2024-02-23T04:16:33;5.60;99.90
33099;DHT22;19465;49.016;11.414;2024-02-23T04:18:58;5.60;99.90
33099;DHT22;19465;49.016;11.414;2024-02-23T04:21:25;5.60;99.90
33099;DHT22;19465;49.016;11.414;2024-02-23T04:23:51;5.70;99.90
33099;DHT22;19465;49.016;11.414;2024-02-23T04:26:16;5.70;99.90
33099;DHT22;19465;49.016;11.414;2024-02-23T04:28:42;5.70;99.90
33099;DHT22;19465;49.016;11.414;2024-02-23T04:31:08;5.70;99.90
33099;DHT22;19465;49.016;11.414;2024-02-23T04:33:35;5.60;99.90
33099;DHT22;19465;49.016;11.414;2024-02-23T04:36:02;5.70;99.90
33099;DHT22;19465;49.016;11.414;2024-02-23T04:38:28;5.70;99.90
33099;DHT22;19465;49.016;11.414;2024-02-23T04:40:54;5.70;99.90
33099;DHT22;19465;49.016;11.414;2024-02-23T04:43:20;5.70;99.90
33099;DHT22;19465;49.016;11.414;2024-02-23T04:45:45;5.70;99.90
33099;DHT22;19465;49.016;11.414;2024-02-23T04:48:11;5.70;99.90
33099;DHT22;19465;49.016;11.414;2024-02-23T04:50:37;5.70;99.90
33099;DHT22;19465;49.016;11.414;2024-02-23T04:53:02;5.70;99.90
33099;DHT22;19465;49.016;11.414;2024-02-23T04:55:28;5.80;99.90
33099;DHT22;19465;49.016;11.414;2024-02-23T04:57:53;5.80;99.90
33099;DHT22;19465;49.016;11.414;2024-02-23T05:00:19;5.80;99.90
33099;DHT22;19465;49.016;11.414;2024-02-23T05:02:45;5.70;99.90
33099;DHT22;19465;49.016;11.414;2024-02-23T05:05:11;5.70;99.90
33099;DHT22;19465;49.016;11.414;2024-02-23T05:07:37;5.70;99.90
33099;DHT22;19465;49.016;11.414;2024-02-23T05:10:03;5.60;99.90
33099;DHT22;19465;49.016;11.414;2024-02-23T05:12:29;5.70;99.90
33099;DHT22;19465;49.016;11.414;2024-02-23T05:14:55;5.70;99.90
33099;DHT22;19465;49.016;11.414;2024-02-23T05:17:20;5.70;99.90
33099;DHT22;19465;49.016;11.414;2024-02-23T05:19:46;5.60;99.90
33099;DHT22;19465;49.016;11.414;2024-02-23T05:22:12;5.70;99.90
33099;DHT22;19465;49.016;11.414;2024-02-23T05:24:37;5.70;99.90
33099;DHT22;19465;49.016;11.414;2024-02-23T05:27:03;5.70;99.90
33099;DHT22;19465;49.016;11.414;2024-02-23T05:29:29;5.70;99.90
33099;DHT22;19465;49.016;11.414;2024-02-23T05:31:54;5.80;99.90
33099;DHT22;19465;49.016;11.414;2024-02-23T05:34:20;5.80;99.90
33099;DHT22;19465;49.016;11.414;2024-02-23T05:36:47;5.80;99.90
33099;DHT22;19465;49.016;11.414;2024-02-23T05:39:13;5.80;99.90
33099;DHT22;19465;49.016;11.414;2024-02-23T05:41:40;5.80;99.90
33099;DHT22;19465;49.016;11.414;2024-02-23T05:44:06;5.70;99.90
33099;DHT22;19465;49.016;11.414;2024-02-23T05:46:33;5.50;99.90
33099;DHT22;19465;49.016;11.414;2024-02-23T05:48:58;5.50;99.90
33099;DHT22;19465;49.016;11.414;2024-02-23T05:51:24;5.40;99.90
33099;DHT22;19465;49.016;11.414;2024-02-23T05:53:49;5.40;99.90
33099;DHT22;19465;49.016;11.414;2024-02-23T05:56:15;5.50;99.90
33099;DHT22;19465;49.016;11.414;2024-02-23T05:58:41;5.50;99.90
33099;DHT22;19465;49.016;11.414;2024-02-23T06:01:06;5.40;99.90
33099;DHT22;19465;49.016;11.414;2024-02-23T06:03:32;5.40;99.90
33099;DHT22;19465;49.016;11.414;2024-02-23T06:05:58;5.40;99.90
33099;DHT22;19465;49.016;11.414;2024-02-23T06:08:23;5.40;99.90
33099;DHT22;19465;49.016;11.414;2024-02-23T06:10:49;5.40;99.90
33099;DHT22;19465;49.016;11.414;2024-02-23T06:13:15;5.40;99.90
33099;DHT22;19465;49.016;11.414;2024-02-23T06:15:40;5.40;99.90
33099;DHT22;19465;49.016;11.414;2024-02-23T06:18:06;5.40;99.90
33099;DHT22;19465;49.016;11.414;2024-02-23T06:20:31;5.40;99.90
33099;DHT22;19465;49.016;11.414;2024-02-23T06:22:57;5.40;99.90
33099;DHT22;19465;49.016;11.414;2024-02-23T06:25:23;5.40;99.90
33099;DHT22;19465;49.016;11.414;2024-02-23T06:27:48;5.40;99.90
33099;DHT22;19465;49.016;11.414;2024-02-23T06:30:14;5.40;99.90
33099;DHT22;19465;49.016;11.414;2024-02-23T06:32:39;5.50;99.90
33099;DHT22;19465;49.016;11.414;2024-02-23T06:35:05;5.50;99.90
33099;DHT22;19465;49.016;11.414;2024-02-23T06:37:32;5.50;99.90
33099;DHT22;19465;49.016;11.414;2024-02-23T06:39:58;5.50;99.90
33099;DHT22;19465;49.016;11.414;2024-02-23T06:42:24;5.50;99.90
33099;DHT22;19465;49.016;11.414;2024-02-23T06:44:50;5.50;99.90
33099;DHT22;19465;49.016;11.414;2024-02-23T06:47:15;5.60;99.90
33099;DHT22;19465;49.016;11.414;2024-02-23T06:49:42;5.60;99.90
33099;DHT22;19465;49.016;11.414;2024-02-23T06:52:08;5.50;99.90
33099;DHT22;19465;49.016;11.414;2024-02-23T06:54:34;5.50;99.90
33099;DHT22;19465;49.016;11.414;2024-02-23T06:57:00;5.50;99.90
33099;DHT22;19465;49.016;11.414;2024-02-23T06:59:25;5.40;99.90
33099;DHT22;19465;49.016;11.414;2024-02-23T07:01:51;5.50;99.90
33099;DHT22;19465;49.016;11.414;2024-02-23T07:04:17;5.50;99.90
33099;DHT22;19465;49.016;11.414;2024-02-23T07:06:43;5.40;99.90
33099;DHT22;19465;49.016;11.414;2024-02-23T07:09:09;5.40;99.90
33099;DHT22;19465;49.016;11.414;2024-02-23T07:11:37;5.40;99.90
33099;DHT22;19465;49.016;11.414;2024-02-23T07:14:03;5.40;99.90
33099;DHT22;19465;49.016;11.414;2024-02-23T07:16:28;5.40;99.90
33099;DHT22;19465;49.016;11.414;2024-02-23T07:18:54;5.40;99.90
33099;DHT22;19465;49.016;11.414;2024-02-23T07:21:20;5.50;99.90
33099;DHT22;19465;49.016;11.414;2024-02-23T07:23:46;5.50;99.90
33099;DHT22;19465;49.016;11.414;2024-02-23T07:26:12;5.50;99.90
33099;DHT22;19465;49.016;11.414;2024-02-23T07:28:37;5.70;99.90
33099;DHT22;19465;49.016;11.414;2024-02-23T07:31:03;5.70;99.90
33099;DHT22;19465;49.016;11.414;2024-02-23T07:33:28;5.70;99.90
33099;DHT22;19465;49.016;11.414;2024-02-23T07:35:54;5.80;99.90
33099;DHT22;19465;49.016;11.414;2024-02-23T07:38:19;5.70;99.90
33099;DHT22;19465;49.016;11.414;2024-02-23T07:40:45;5.60;99.90
33099;DHT22;19465;49.016;11.414;2024-02-23T07:43:10;5.60;99.90
33099;DHT22;19465;49.016;11.414;2024-02-23T07:45:36;5.60;99.90
33099;DHT22;19465;49.016;11.414;2024-02-23T07:48:03;5.60;99.90
33099;DHT22;19465;49.016;11.414;2024-02-23T07:50:28;5.70;99.90
33099;DHT22;19465;49.016;11.414;2024-02-23T07:52:54;5.70;99.90
33099;DHT22;19465;49.016;11.414;2024-02-23T07:55:19;5.70;99.90
33099;DHT22;19465;49.016;11.414;2024-02-23T07:57:45;5.70;99.90
33099;DHT22;19465;49.016;11.414;2024-02-23T08:00:11;5.70;99.90
33099;DHT22;19465;49.016;11.414;2024-02-23T08:02:38;5.70;99.90
33099;DHT22;19465;49.016;11.414;2024-02-23T08:05:03;5.80;99.90
33099;DHT22;19465;49.016;11.414;2024-02-23T08:07:29;5.90;99.90
33099;DHT22;19465;49.016;11.414;2024-02-23T08:09:56;5.90;99.90
33099;DHT22;19465;49.016;11.414;2024-02-23T08:12:22;6.00;99.90
33099;DHT22;19465;49.016;11.414;2024-02-23T08:14:48;6.00;99.90
33099;DHT22;19465;49.016;11.414;2024-02-23T08:17:14;5.90;99.90
33099;DHT22;19465;49.016;11.414;2024-02-23T08:19:40;5.90;99.90
33099;DHT22;19465;49.016;11.414;2024-02-23T08:22:05;6.00;99.90
33099;DHT22;19465;49.016;11.414;2024-02-23T08:24:31;5.90;99.90
33099;DHT22;19465;49.016;11.414;2024-02-23T08:26:57;5.90;99.90
33099;DHT22;19465;49.016;11.414;2024-02-23T08:29:22;5.90;99.90
33099;DHT22;19465;49.016;11.414;2024-02-23T08:31:48;6.00;99.90
33099;DHT22;19465;49.016;11.414;2024-02-23T08:34:14;5.90;99.90
33099;DHT22;19465;49.016;11.414;2024-02-23T08:36:40;6.00;99.90
33099;DHT22;19465;49.016;11.414;2024-02-23T08:39:05;5.90;99.90
33099;DHT22;19465;49.016;11.414;2024-02-23T08:41:31;5.90;99.90
33099;DHT22;19465;49.016;11.414;2024-02-23T08:43:56;5.90;99.90
33099;DHT22;19465;49.016;11.414;2024-02-23T08:46:22;6.00;99.90
33099;DHT22;19465;49.016;11.414;2024-02-23T08:48:48;6.10;99.90
33099;DHT22;19465;49.016;11.414;2024-02-23T08:51:13;6.10;99.90
33099;DHT22;19465;49.016;11.414;2024-02-23T08:53:39;6.20;99.90
33099;DHT22;19465;49.016;11.414;2024-02-23T08:56:06;6.20;99.90
33099;DHT22;19465;49.016;11.414;2024-02-23T08:58:33;6.20;99.90
33099;DHT22;19465;49.016;11.414;2024-02-23T09:00:58;6.20;99.90
33099;DHT22;19465;49.016;11.414;2024-02-23T09:03:24;6.20;99.90
33099;DHT22;19465;49.016;11.414;2024-02-23T09:05:49;6.40;99.90
33099;DHT22;19465;49.016;11.414;2024-02-23T09:08:15;6.40;99.90
33099;DHT22;19465;49.016;11.414;2024-02-23T09:10:41;6.30;99.90
33099;DHT22;19465;49.016;11.414;2024-02-23T09:13:06;6.30;99.90
33099;DHT22;19465;49.016;11.414;2024-02-23T09:15:32;6.30;99.90
33099;DHT22;19465;49.016;11.414;2024-02-23T09:17:57;6.30;99.90
33099;DHT22;19465;49.016;11.414;2024-02-23T09:20:23;6.30;99.90
33099;DHT22;19465;49.016;11.414;2024-02-23T09:22:49;6.50;99.90
33099;DHT22;19465;49.016;11.414;2024-02-23T09:25:14;6.60;99.90
33099;DHT22;19465;49.016;11.414;2024-02-23T09:27:40;6.70;99.90
33099;DHT22;19465;49.016;11.414;2024-02-23T09:30:12;6.80;99.90
33099;DHT22;19465;49.016;11.414;2024-02-23T09:32:38;6.70;99.90
33099;DHT22;19465;49.016;11.414;2024-02-23T09:35:04;6.70;99.90
33099;DHT22;19465;49.016;11.414;2024-02-23T09:37:30;6.80;99.90
33099;DHT22;19465;49.016;11.414;2024-02-23T09:39:56;6.70;99.90
33099;DHT22;19465;49.016;11.414;2024-02-23T09:42:23;6.70;99.90
33099;DHT22;19465;49.016;11.414;2024-02-23T09:44:58;6.70;99.90
33099;DHT22;19465;49.016;11.414;2024-02-23T09:47:28;6.80;99.90
33099;DHT22;19465;49.016;11.414;2024-02-23T09:49:54;6.70;99.90
33099;DHT22;19465;49.016;11.414;2024-02-23T09:52:21;6.70;99.90
33099;DHT22;19465;49.016;11.414;2024-02-23T09:54:48;6.70;99.90
33099;DHT22;19465;49.016;11.414;2024-02-23T09:57:14;6.70;99.90
33099;DHT22;19465;49.016;11.414;2024-02-23T09:59:41;6.70;99.90
33099;DHT22;19465;49.016;11.414;2024-02-23T10:02:08;6.80;99.90
33099;DHT22;19465;49.016;11.414;2024-02-23T10:04:38;6.80;99.90
33099;DHT22;19465;49.016;11.414;2024-02-23T10:07:05;6.80;99.90
33099;DHT22;19465;49.016;11.414;2024-02-23T10:09:31;6.70;99.90
33099;DHT22;19465;49.016;11.414;2024-02-23T10:11:57;6.60;99.90
33099;DHT22;19465;49.016;11.414;2024-02-23T10:14:22;6.80;99.90
33099;DHT22;19465;49.016;11.414;2024-02-23T10:16:48;6.80;99.90
33099;DHT22;19465;49.016;11.414;2024-02-23T10:19:19;6.80;99.90
33099;DHT22;19465;49.016;11.414;2024-02-23T10:21:45;6.90;99.90
33099;DHT22;19465;49.016;11.414;2024-02-23T10:24:11;6.90;99.90
33099;DHT22;19465;49.016;11.414;2024-02-23T10:26:36;6.90;99.90
33099;DHT22;19465;49.016;11.414;2024-02-23T10:29:02;6.90;99.90
33099;DHT22;19465;49.016;11.414;2024-02-23T10:31:31;6.80;99.90
33099;DHT22;19465;49.016;11.414;2024-02-23T10:33:59;7.00;99.90
33099;DHT22;19465;49.016;11.414;2024-02-23T10:36:27;7.10;99.90
33099;DHT22;19465;49.016;11.414;2024-02-23T10:38:56;7.20;99.90
33099;DHT22;19465;49.016;11.414;2024-02-23T10:41:25;7.20;99.90
33099;DHT22;19465;49.016;11.414;2024-02-23T10:43:51;7.20;99.90
33099;DHT22;19465;49.016;11.414;2024-02-23T10:46:18;7.20;99.90
33099;DHT22;19465;49.016;11.414;2024-02-23T10:48:45;7.20;99.90
33099;DHT22;19465;49.016;11.414;2024-02-23T10:51:14;7.10;99.90
33099;DHT22;19465;49.016;11.414;2024-02-23T10:53:40;7.00;99.90
33099;DHT22;19465;49.016;11.414;2024-02-23T10:56:07;7.00;99.90
33099;DHT22;19465;49.016;11.414;2024-02-23T10:58:32;7.00;99.90
33099;DHT22;19465;49.016;11.414;2024-02-23T11:01:01;7.00;99.90
33099;DHT22;19465;49.016;11.414;2024-02-23T11:03:29;6.90;99.90
33099;DHT22;19465;49.016;11.414;2024-02-23T11:05:55;6.90;99.90
33099;DHT22;19465;49.016;11.414;2024-02-23T11:08:21;7.00;99.90
33099;DHT22;19465;49.016;11.414;2024-02-23T11:10:50;6.90;99.90
33099;DHT22;19465;49.016;11.414;2024-02-23T11:13:20;7.00;99.90
33099;DHT22;19465;49.016;11.414;2024-02-23T11:16:01;7.00;99.90
33099;DHT22;19465;49.016;11.414;2024-02-23T11:18:27;7.10;99.90
33099;DHT22;19465;49.016;11.414;2024-02-23T11:21:03;7.10;99.90
33099;DHT22;19465;49.016;11.414;2024-02-23T11:23:48;7.00;99.90
33099;DHT22;19465;49.016;11.414;2024-02-23T11:26:18;7.20;99.90
33099;DHT22;19465;49.016;11.414;2024-02-23T11:31:16;7.10;99.90
33099;DHT22;19465;49.016;11.414;2024-02-23T11:33:51;7.10;99.90
33099;DHT22;19465;49.016;11.414;2024-02-23T11:38:53;7.00;99.90
33099;DHT22;19465;49.016;11.414;2024-02-23T11:41:21;7.10;99.90
33099;DHT22;19465;49.016;11.414;2024-02-23T11:43:49;7.10;99.90
33099;DHT22;19465;49.016;11.414;2024-02-23T11:46:18;7.10;99.90
33099;DHT22;19465;49.016;11.414;2024-02-23T11:48:44;7.10;99.90
33099;DHT22;19465;49.016;11.414;2024-02-23T11:51:15;7.00;99.90
33099;DHT22;19465;49.016;11.414;2024-02-23T11:53:41;7.00;99.90
33099;DHT22;19465;49.016;11.414;2024-02-23T11:56:07;7.00;99.90
33099;DHT22;19465;49.016;11.414;2024-02-23T11:58:33;7.00;99.90
33099;DHT22;19465;49.016;11.414;2024-02-23T12:01:00;7.00;99.90
33099;DHT22;19465;49.016;11.414;2024-02-23T12:03:30;7.10;99.90
33099;DHT22;19465;49.016;11.414;2024-02-23T12:05:57;7.20;99.90
33099;DHT22;19465;49.016;11.414;2024-02-23T12:08:27;7.30;99.90
33099;DHT22;19465;49.016;11.414;2024-02-23T12:10:54;7.30;99.90
33099;DHT22;19465;49.016;11.414;2024-02-23T12:13:20;7.20;99.90
33099;DHT22;19465;49.016;11.414;2024-02-23T12:15:47;7.20;99.90
33099;DHT22;19465;49.016;11.414;2024-02-23T12:18:13;7.00;99.90
33099;DHT22;19465;49.016;11.414;2024-02-23T12:20:40;6.90;99.90
33099;DHT22;19465;49.016;11.414;2024-02-23T12:23:05;6.80;99.90
33099;DHT22;19465;49.016;11.414;2024-02-23T12:25:33;6.90;99.90
33099;DHT22;19465;49.016;11.414;2024-02-23T12:27:59;7.00;99.90
33099;DHT22;19465;49.016;11.414;2024-02-23T12:30:26;7.10;99.90
33099;DHT22;19465;49.016;11.414;2024-02-23T12:33:03;7.10;99.90
33099;DHT22;19465;49.016;11.414;2024-02-23T12:35:29;7.00;99.90
33099;DHT22;19465;49.016;11.414;2024-02-23T12:37:54;7.00;99.90
33099;DHT22;19465;49.016;11.414;2024-02-23T12:40:20;7.10;99.90
33099;DHT22;19465;49.016;11.414;2024-02-23T12:42:46;7.10;99.90
33099;DHT22;19465;49.016;11.414;2024-02-23T12:45:14;7.00;99.90
33099;DHT22;19465;49.016;11.414;2024-02-23T12:47:39;7.10;99.90
33099;DHT22;19465;49.016;11.414;2024-02-23T12:50:06;7.10;99.90
33099;DHT22;19465;49.016;11.414;2024-02-23T12:52:33;7.20;99.90
33099;DHT22;19465;49.016;11.414;2024-02-23T12:54:59;7.30;99.90
33099;DHT22;19465;49.016;11.414;2024-02-23T12:57:24;7.20;99.90
33099;DHT22;19465;49.016;11.414;2024-02-23T12:59:50;7.20;99.90
33099;DHT22;19465;49.016;11.414;2024-02-23T13:02:16;7.10;99.90
33099;DHT22;19465;49.016;11.414;2024-02-23T13:04:42;7.20;99.90
33099;DHT22;19465;49.016;11.414;2024-02-23T13:07:11;7.10;99.90
33099;DHT22;19465;49.016;11.414;2024-02-23T13:09:37;7.10;99.90
33099;DHT22;19465;49.016;11.414;2024-02-23T13:12:03;7.00;99.90
33099;DHT22;19465;49.016;11.414;2024-02-23T13:14:29;7.00;99.90
33099;DHT22;19465;49.016;11.414;2024-02-23T13:16:55;7.00;99.90
33099;DHT22;19465;49.016;11.414;2024-02-23T13:19:20;7.00;99.90
33099;DHT22;19465;49.016;11.414;2024-02-23T13:21:46;7.10;99.90
33099;DHT22;19465;49.016;11.414;2024-02-23T13:24:11;7.10;99.90
33099;DHT22;19465;49.016;11.414;2024-02-23T13:26:37;7.00;99.90
33099;DHT22;19465;49.016;11.414;2024-02-23T13:29:02;7.00;99.90
33099;DHT22;19465;49.016;11.414;2024-02-23T13:31:28;7.10;99.90
33099;DHT22;19465;49.016;11.414;2024-02-23T13:33:53;6.90;99.90
33099;DHT22;19465;49.016;11.414;2024-02-23T13:36:19;6.90;99.90
33099;DHT22;19465;49.016;11.414;2024-02-23T13:38:45;6.80;99.90
33099;DHT22;19465;49.016;11.414;2024-02-23T13:41:11;6.80;99.90
33099;DHT22;19465;49.016;11.414;2024-02-23T13:43:37;6.80;99.90
33099;DHT22;19465;49.016;11.414;2024-02-23T13:46:03;6.80;99.90
33099;DHT22;19465;49.016;11.414;2024-02-23T13:48:29;6.90;99.90
33099;DHT22;19465;49.016;11.414;2024-02-23T13:50:55;7.00;99.90
33099;DHT22;19465;49.016;11.414;2024-02-23T13:53:21;7.00;99.90
33099;DHT22;19465;49.016;11.414;2024-02-23T13:55:47;6.90;99.90
33099;DHT22;19465;49.016;11.414;2024-02-23T13:58:13;6.80;99.90
33099;DHT22;19465;49.016;11.414;2024-02-23T14:00:38;6.80;99.90
33099;DHT22;19465;49.016;11.414;2024-02-23T14:03:04;6.70;99.90
33099;DHT22;19465;49.016;11.414;2024-02-23T14:05:30;6.70;99.90
33099;DHT22;19465;49.016;11.414;2024-02-23T14:07:55;6.70;99.90
33099;DHT22;19465;49.016;11.414;2024-02-23T14:10:21;6.80;99.90
33099;DHT22;19465;49.016;11.414;2024-02-23T14:12:46;6.80;99.90
33099;DHT22;19465;49.016;11.414;2024-02-23T14:15:12;6.80;99.90
33099;DHT22;19465;49.016;11.414;2024-02-23T14:17:41;6.70;99.90
33099;DHT22;19465;49.016;11.414;2024-02-23T14:20:06;6.80;99.90
33099;DHT22;19465;49.016;11.414;2024-02-23T14:22:32;6.80;99.90
33099;DHT22;19465;49.016;11.414;2024-02-23T14:24:58;6.80;99.90
33099;DHT22;19465;49.016;11.414;2024-02-23T14:27:24;6.90;99.90
33099;DHT22;19465;49.016;11.414;2024-02-23T14:29:50;6.90;99.90
33099;DHT22;19465;49.016;11.414;2024-02-23T14:32:16;6.80;99.90
33099;DHT22;19465;49.016;11.414;2024-02-23T14:34:43;6.70;99.90
33099;DHT22;19465;49.016;11.414;2024-02-23T14:37:09;6.60;99.90
33099;DHT22;19465;49.016;11.414;2024-02-23T14:39:34;6.60;99.90
33099;DHT22;19465;49.016;11.414;2024-02-23T14:42:00;6.40;99.90
33099;DHT22;19465;49.016;11.414;2024-02-23T14:44:26;6.40;99.90
33099;DHT22;19465;49.016;11.414;2024-02-23T14:46:52;6.30;99.90
33099;DHT22;19465;49.016;11.414;2024-02-23T14:49:18;6.30;99.90
33099;DHT22;19465;49.016;11.414;2024-02-23T14:51:44;6.20;99.90
33099;DHT22;19465;49.016;11.414;2024-02-23T14:54:11;6.30;99.90
33099;DHT22;19465;49.016;11.414;2024-02-23T14:56:37;6.30;99.90
33099;DHT22;19465;49.016;11.414;2024-02-23T14:59:03;6.40;99.90
33099;DHT22;19465;49.016;11.414;2024-02-23T15:01:28;6.50;99.90
33099;DHT22;19465;49.016;11.414;2024-02-23T15:03:54;6.40;99.90
33099;DHT22;19465;49.016;11.414;2024-02-23T15:06:19;6.40;99.90
33099;DHT22;19465;49.016;11.414;2024-02-23T15:08:48;6.30;99.90
33099;DHT22;19465;49.016;11.414;2024-02-23T15:11:13;6.20;99.90
33099;DHT22;19465;49.016;11.414;2024-02-23T15:13:39;6.30;99.90
33099;DHT22;19465;49.016;11.414;2024-02-23T15:16:05;6.30;99.90
33099;DHT22;19465;49.016;11.414;2024-02-23T15:18:31;6.30;99.90
33099;DHT22;19465;49.016;11.414;2024-02-23T15:20:56;6.30;99.90
33099;DHT22;19465;49.016;11.414;2024-02-23T15:23:22;6.30;99.90
33099;DHT22;19465;49.016;11.414;2024-02-23T15:25:49;6.30;99.90
33099;DHT22;19465;49.016;11.414;2024-02-23T15:28:15;6.20;99.90